Time;durP1;ratioP1;P1;durP2;ratioP2;P2;SDS_P1;SDS_P2;PMS_P1;PMS_P2;Temp;Humidity;BMP_temperature;BMP_pressure;BME280_temperature;BME280_humidity;BME280_pressure;Samples;Min_cycle;Max_cycle;Signal;HPM_P1;HPM_P2
2021/11/11 00:00:10;;;;;;;65.15;29.48;;;9.90;93.10;;;;;;4819139;29;20054;-72
2021/11/11 00:02:42;;;;;;;65.75;30.55;;;9.80;93.10;;;;;;4837157;29;20050;-72
2021/11/11 00:05:10;;;;;;;64.53;30.20;;;9.90;93.10;;;;;;4826032;29;20053;-73
2021/11/11 00:07:39;;;;;;;66.35;30.73;;;9.90;93.00;;;;;;4843120;29;20404;-73
2021/11/11 00:10:09;;;;;;;63.70;29.90;;;9.90;93.00;;;;;;4826576;29;20053;-72
2021/11/11 00:12:36;;;;;;;63.45;30.30;;;9.90;93.10;;;;;;4842623;29;20057;-72
2021/11/11 00:15:08;;;;;;;60.10;29.08;;;9.90;93.00;;;;;;4843010;29;20532;-72
2021/11/11 00:17:36;;;;;;;62.60;29.75;;;9.80;93.00;;;;;;4843019;29;20064;-73
2021/11/11 00:20:06;;;;;;;66.03;30.10;;;9.90;93.10;;;;;;4843224;29;20053;-72
2021/11/11 00:22:34;;;;;;;56.95;27.83;;;9.90;93.10;;;;;;4842991;29;20057;-73
2021/11/11 00:25:04;;;;;;;65.82;29.67;;;9.90;93.10;;;;;;4841313;29;20054;-72
2021/11/11 00:27:32;;;;;;;50.03;27.52;;;9.90;93.10;;;;;;4826531;29;20054;-73
2021/11/11 00:30:00;;;;;;;64.35;29.92;;;9.90;93.10;;;;;;4842680;29;20057;-72
2021/11/11 00:32:30;;;;;;;60.63;28.77;;;9.90;93.10;;;;;;4843139;29;20061;-71
2021/11/11 00:35:02;;;;;;;65.03;30.85;;;9.90;93.10;;;;;;4842844;29;20412;-72
2021/11/11 00:37:31;;;;;;;59.05;29.75;;;9.90;93.20;;;;;;4841571;29;20274;-72
2021/11/11 00:39:59;;;;;;;62.58;30.65;;;10.00;93.10;;;;;;4842049;29;20060;-71
2021/11/11 00:42:27;;;;;;;65.60;31.00;;;10.00;93.10;;;;;;4843081;29;20058;-72
2021/11/11 00:44:55;;;;;;;60.22;32.08;;;10.00;93.10;;;;;;4826290;29;20511;-72
2021/11/11 00:47:22;;;;;;;67.28;31.88;;;10.00;93.10;;;;;;4811155;29;20057;-72
2021/11/11 00:49:50;;;;;;;66.80;32.20;;;10.00;93.10;;;;;;4826521;29;20049;-73
2021/11/11 00:52:19;;;;;;;61.10;31.05;;;10.00;93.10;;;;;;4843139;29;20046;-73
2021/11/11 00:54:47;;;;;;;63.17;31.25;;;10.10;93.10;;;;;;4826466;29;20057;-73
2021/11/11 00:57:27;;;;;;;64.60;31.20;;;10.00;93.10;;;;;;4817938;29;20473;-73
2021/11/11 00:59:55;;;;;;;62.10;30.92;;;10.00;93.10;;;;;;4826068;29;20042;-73
2021/11/11 01:02:22;;;;;;;61.88;30.95;;;10.10;93.10;;;;;;4825490;29;20404;-72
2021/11/11 01:04:50;;;;;;;59.30;31.60;;;10.00;93.10;;;;;;4825599;29;20425;-73
2021/11/11 01:07:19;;;;;;;61.50;30.27;;;10.10;93.00;;;;;;4825450;29;20045;-73
2021/11/11 01:09:47;;;;;;;60.17;31.27;;;10.00;93.10;;;;;;4838983;29;20061;-72
2021/11/11 01:12:14;;;;;;;67.85;31.25;;;10.10;93.00;;;;;;4825360;29;20050;-73
2021/11/11 01:14:42;;;;;;;61.85;30.90;;;10.10;93.00;;;;;;4841646;29;20058;-73
2021/11/11 01:17:09;;;;;;;60.35;30.70;;;10.00;93.00;;;;;;4825055;29;20050;-73
2021/11/11 01:19:37;;;;;;;70.00;32.40;;;10.00;93.10;;;;;;4825776;29;20519;-73
2021/11/11 01:22:06;;;;;;;65.35;33.25;;;10.00;93.10;;;;;;4825598;29;20046;-73
2021/11/11 01:24:34;;;;;;;63.50;32.75;;;10.00;93.10;;;;;;4825359;29;20077;-73
2021/11/11 01:27:02;;;;;;;63.15;31.40;;;10.00;93.10;;;;;;4825224;29;20042;-73
2021/11/11 01:29:30;;;;;;;69.95;31.60;;;10.00;93.10;;;;;;4825133;29;20056;-73
2021/11/11 01:31:59;;;;;;;71.20;32.38;;;10.00;93.10;;;;;;4826099;29;20511;-73
2021/11/11 01:34:28;;;;;;;65.63;32.28;;;9.90;93.10;;;;;;4824807;29;20054;-72
2021/11/11 01:37:01;;;;;;;61.30;25.08;;;9.90;93.20;;;;;;4825532;29;20048;-73
2021/11/11 01:39:31;;;;;;;64.38;30.75;;;9.90;93.20;;;;;;4824632;29;20057;-73
2021/11/11 01:42:04;;;;;;;62.63;30.63;;;9.90;93.20;;;;;;4825115;29;20053;-72
2021/11/11 01:44:33;;;;;;;63.97;31.70;;;9.90;93.20;;;;;;4806991;29;20069;-73
2021/11/11 01:47:01;;;;;;;73.90;31.63;;;9.90;93.20;;;;;;4821530;29;20057;-72
2021/11/11 01:49:29;;;;;;;66.43;32.05;;;9.90;93.20;;;;;;4824902;29;20058;-72
2021/11/11 01:51:57;;;;;;;67.95;32.47;;;9.90;93.20;;;;;;4824650;29;20057;-73
2021/11/11 01:54:26;;;;;;;60.05;30.92;;;9.90;93.20;;;;;;4810488;29;20057;-73
2021/11/11 01:56:58;;;;;;;60.58;30.95;;;9.90;93.20;;;;;;4809409;29;20046;-73
2021/11/11 01:59:31;;;;;;;65.03;32.00;;;10.00;93.20;;;;;;4824853;29;20054;-73
2021/11/11 02:02:02;;;;;;;61.00;30.63;;;10.00;93.20;;;;;;4824861;29;20543;-73
2021/11/11 02:04:49;;;;;;;68.47;30.70;;;10.00;93.20;;;;;;4828432;29;20334;-72
2021/11/11 02:07:17;;;;;;;62.85;30.10;;;10.00;93.20;;;;;;4822096;29;20065;-74
2021/11/11 02:09:56;;;;;;;71.20;32.55;;;10.00;93.20;;;;;;4821059;29;20065;-73
2021/11/11 02:12:31;;;;;;;67.40;31.23;;;10.00;93.20;;;;;;4825830;29;20579;-73
2021/11/11 02:15:04;;;;;;;80.78;35.10;;;10.00;93.20;;;;;;4825632;29;20496;-72
2021/11/11 02:17:33;;;;;;;65.20;33.22;;;10.00;93.20;;;;;;4825580;29;20049;-73
2021/11/11 02:20:14;;;;;;;63.78;30.80;;;10.00;93.20;;;;;;4825533;29;20042;-72
2021/11/11 02:23:04;;;;;;;73.40;32.50;;;10.00;93.20;;;;;;4841766;29;20504;-72
2021/11/11 02:25:52;;;;;;;62.42;30.45;;;10.10;93.20;;;;;;4827921;29;20042;-72
2021/11/11 02:28:22;;;;;;;74.55;32.35;;;10.00;93.20;;;;;;4825223;29;20050;-73
2021/11/11 02:30:52;;;;;;;72.05;34.70;;;10.10;93.20;;;;;;4825141;29;20411;-72
2021/11/11 02:33:27;;;;;;;74.43;33.15;;;10.00;93.20;;;;;;4810071;29;20437;-72
2021/11/11 02:35:56;;;;;;;65.75;32.83;;;10.10;93.20;;;;;;4825027;29;20046;-73
2021/11/11 02:38:25;;;;;;;66.32;31.73;;;10.00;93.10;;;;;;4814936;29;20053;-73
2021/11/11 02:40:52;;;;;;;72.65;34.20;;;10.00;93.20;;;;;;4825554;29;20496;-73
2021/11/11 02:43:20;;;;;;;76.15;33.03;;;10.00;93.20;;;;;;4824650;29;20045;-72
2021/11/11 02:45:50;;;;;;;68.60;34.20;;;10.00;93.10;;;;;;4824776;29;20045;-73
2021/11/11 02:48:23;;;;;;;79.43;35.10;;;10.10;93.20;;;;;;4825349;29;20061;-72
2021/11/11 02:50:55;;;;;;;72.80;34.05;;;10.10;93.20;;;;;;4825418;29;20056;-73
2021/11/11 02:53:23;;;;;;;74.20;34.05;;;10.10;93.20;;;;;;4810252;29;20058;-72
2021/11/11 02:55:52;;;;;;;74.32;34.05;;;10.00;93.20;;;;;;4823525;29;20420;-72
2021/11/11 02:58:23;;;;;;;77.80;34.45;;;10.10;93.20;;;;;;4824219;29;20069;-73
2021/11/11 03:00:55;;;;;;;78.22;33.67;;;10.00;93.20;;;;;;4824297;29;20054;-72
2021/11/11 03:03:28;;;;;;;84.03;34.72;;;10.00;93.20;;;;;;4824641;29;20053;-73
2021/11/11 03:05:56;;;;;;;71.72;33.38;;;10.00;93.10;;;;;;4839150;29;20400;-74
2021/11/11 03:08:24;;;;;;;78.38;33.88;;;10.00;93.20;;;;;;4824236;29;20054;-72
2021/11/11 03:10:56;;;;;;;75.13;34.42;;;9.90;93.20;;;;;;4823417;29;20058;-72
2021/11/11 03:13:31;;;;;;;81.28;35.67;;;9.80;93.20;;;;;;4824677;29;20060;-72
2021/11/11 03:16:06;;;;;;;82.63;36.10;;;9.80;93.20;;;;;;4825112;29;20057;-72
2021/11/11 03:18:34;;;;;;;85.45;38.00;;;9.80;93.30;;;;;;4824808;29;20050;-72
2021/11/11 03:21:02;;;;;;;97.88;39.50;;;9.70;93.30;;;;;;4824840;29;20034;-72
2021/11/11 03:23:29;;;;;;;99.60;41.15;;;9.70;93.30;;;;;;4825105;29;20062;-72
2021/11/11 03:26:01;;;;;;;105.75;42.22;;;9.60;93.30;;;;;;4824956;29;20042;-72
2021/11/11 03:28:36;;;;;;;99.85;41.13;;;9.50;93.30;;;;;;4825391;29;20125;-72
2021/11/11 03:31:04;;;;;;;106.97;41.17;;;9.50;93.40;;;;;;4824546;29;20061;-72
2021/11/11 03:33:32;;;;;;;114.65;42.30;;;9.30;93.30;;;;;;4824309;29;20492;-71
2021/11/11 03:36:00;;;;;;;113.45;40.53;;;9.30;93.20;;;;;;4824547;29;20050;-72
2021/11/11 03:38:29;;;;;;;130.23;46.13;;;9.10;93.30;;;;;;4825058;29;20064;-72
2021/11/11 03:40:58;;;;;;;165.52;51.10;;;9.00;93.60;;;;;;4826874;29;20061;-72
2021/11/11 03:43:32;;;;;;;161.13;47.58;;;8.80;93.70;;;;;;4828409;29;20046;-72
2021/11/11 03:46:12;;;;;;;209.55;55.63;;;8.80;93.90;;;;;;4813075;29;20050;-72
2021/11/11 03:48:42;;;;;;;;;;;8.80;94.00;;;;;;4828587;29;20042;-72
2021/11/11 03:51:12;;;;;;;521.92;64.88;;;8.70;94.30;;;;;;4827402;29;19935;-72
2021/11/11 03:53:44;;;;;;;635.72;72.65;;;8.80;94.50;;;;;;4813386;29;20404;-72
2021/11/11 03:56:12;;;;;;;677.95;72.15;;;8.80;94.50;;;;;;4827956;29;20056;-72
2021/11/11 03:58:43;;;;;;;807.47;75.78;;;8.80;94.50;;;;;;4828184;29;20050;-73
2021/11/11 04:01:12;;;;;;;1127.47;89.65;;;8.80;94.40;;;;;;4827782;29;20412;-73
2021/11/11 04:03:42;;;;;;;1200.25;92.95;;;8.80;94.40;;;;;;4828270;29;20389;-72
2021/11/11 04:06:09;;;;;;;1112.88;87.15;;;8.80;94.40;;;;;;4827928;29;20045;-72
2021/11/11 04:08:38;;;;;;;1034.95;83.85;;;8.80;94.30;;;;;;4827577;29;20053;-72
2021/11/11 04:11:06;;;;;;;783.35;69.85;;;8.80;94.40;;;;;;4844232;29;20057;-72
2021/11/11 04:13:35;;;;;;;1181.45;87.55;;;8.80;94.50;;;;;;4844454;29;20053;-73
2021/11/11 04:16:04;;;;;;;1006.05;75.75;;;8.80;94.50;;;;;;4826780;29;20065;-72
2021/11/11 04:18:35;;;;;;;813.60;64.47;;;8.70;94.50;;;;;;4826437;29;20061;-72
2021/11/11 04:21:03;;;;;;;744.50;49.22;;;8.80;94.50;;;;;;4827886;29;20046;-72
2021/11/11 04:23:32;;;;;;;943.88;64.13;;;8.80;94.50;;;;;;4827453;29;20046;-72
2021/11/11 04:28:36;;;;;;;1052.80;62.70;;;8.70;94.50;;;;;;4827828;29;20050;-73
2021/11/11 04:31:14;;;;;;;1023.40;77.15;;;8.60;94.50;;;;;;4812308;29;20050;-72
2021/11/11 04:33:43;;;;;;;825.70;62.55;;;8.60;94.60;;;;;;4843229;29;20416;-73
2021/11/11 04:37:08;;;;;;;990.47;62.88;;;8.60;94.60;;;;;;4811221;29;20059;-72
2021/11/11 05:01:19;;;;;;;555.60;51.20;;;8.30;94.70;;;;;;4768156;30;20051;-72
2021/11/11 05:03:48;;;;;;;378.95;45.17;;;8.20;94.70;;;;;;4765518;30;20518;-72
2021/11/11 05:06:18;;;;;;;778.03;65.40;;;8.20;94.70;;;;;;4766116;30;20430;-73
2021/11/11 05:08:47;;;;;;;531.53;51.17;;;8.30;94.70;;;;;;4768529;30;20056;-73
2021/11/11 05:11:16;;;;;;;732.38;61.30;;;8.20;94.70;;;;;;4753727;30;20060;-72
2021/11/11 05:13:44;;;;;;;528.13;50.95;;;8.30;94.80;;;;;;4768909;30;20068;-72
2021/11/11 05:16:16;;;;;;;1015.97;68.67;;;8.30;94.80;;;;;;4754520;30;20740;-72
2021/11/11 05:18:45;;;;;;;734.00;60.65;;;8.30;94.80;;;;;;4753720;30;20063;-72
2021/11/11 05:21:14;;;;;;;607.45;52.83;;;8.30;94.80;;;;;;4793940;29;20208;-72
2021/11/11 05:23:42;;;;;;;458.90;48.00;;;8.30;94.70;;;;;;4813929;29;20046;-73
2021/11/11 05:26:12;;;;;;;635.75;56.45;;;8.30;94.80;;;;;;4826455;29;20053;-72
2021/11/11 05:28:41;;;;;;;518.33;49.83;;;8.30;94.70;;;;;;4826979;29;20050;-72
2021/11/11 05:31:14;;;;;;;;;;;8.30;94.70;;;;;;4828227;29;20042;-72
2021/11/11 05:33:42;;;;;;;623.78;49.05;;;8.30;94.70;;;;;;4825951;29;19924;-72
2021/11/11 05:36:10;;;;;;;580.08;50.60;;;8.30;94.60;;;;;;4826384;29;20056;-72
2021/11/11 05:38:39;;;;;;;485.33;46.63;;;8.40;94.60;;;;;;4826353;29;20069;-72
2021/11/11 05:41:07;;;;;;;730.55;55.70;;;8.30;94.50;;;;;;4831025;29;20057;-72
2021/11/11 05:43:36;;;;;;;699.50;52.05;;;8.30;94.50;;;;;;4826218;29;20502;-72
2021/11/11 05:46:04;;;;;;;1095.00;68.03;;;8.30;94.50;;;;;;4826347;29;20504;-73
2021/11/11 05:48:34;;;;;;;856.25;59.78;;;8.30;94.60;;;;;;4826086;29;20042;-72
2021/11/11 05:51:05;;;;;;;838.63;61.30;;;8.30;94.60;;;;;;4825998;29;20058;-73
2021/11/11 05:53:34;;;;;;;856.83;60.17;;;8.30;94.60;;;;;;4841108;29;20049;-73
2021/11/11 05:56:01;;;;;;;702.33;55.42;;;8.30;94.60;;;;;;4837300;29;20049;-73
2021/11/11 05:58:29;;;;;;;530.13;51.58;;;8.30;94.60;;;;;;4823370;29;20480;-73
2021/11/11 06:00:57;;;;;;;698.47;52.13;;;8.30;94.60;;;;;;4849589;29;20054;-73
2021/11/11 06:03:33;;;;;;;678.10;52.80;;;8.40;94.70;;;;;;4843017;29;20499;-72
2021/11/11 06:06:05;;;;;;;498.27;46.08;;;8.40;94.60;;;;;;4832625;29;20516;-73
2021/11/11 06:08:37;;;;;;;462.30;45.40;;;8.40;94.60;;;;;;4827234;29;20046;-73
2021/11/11 06:11:06;;;;;;;535.45;45.90;;;8.40;94.60;;;;;;4842659;29;20057;-73
2021/11/11 06:13:34;;;;;;;324.23;42.03;;;8.40;94.60;;;;;;4844112;29;20052;-73
2021/11/11 06:16:02;;;;;;;525.15;46.95;;;8.30;94.60;;;;;;4857419;29;20053;-73
2021/11/11 06:18:31;;;;;;;390.08;42.88;;;8.40;94.70;;;;;;4843769;29;20064;-74
2021/11/11 06:21:00;;;;;;;496.45;50.47;;;8.40;94.60;;;;;;4860898;29;20049;-73
2021/11/11 06:23:34;;;;;;;371.23;43.03;;;8.40;94.60;;;;;;4844396;29;20049;-73
2021/11/11 06:26:03;;;;;;;650.60;53.55;;;8.40;94.70;;;;;;4828420;29;20521;-73
2021/11/11 06:28:38;;;;;;;313.83;38.38;;;8.40;94.70;;;;;;4797140;29;20428;-73
2021/11/11 06:31:06;;;;;;;276.48;37.85;;;8.40;94.60;;;;;;4830803;29;20504;-73
2021/11/11 06:33:34;;;;;;;463.05;50.08;;;8.40;94.60;;;;;;4835802;29;20505;-73
2021/11/11 06:36:03;;;;;;;582.67;50.47;;;8.30;94.60;;;;;;4830535;29;20416;-74
2021/11/11 06:38:30;;;;;;;626.65;52.70;;;8.40;94.70;;;;;;4852067;29;20403;-71
2021/11/11 06:40:58;;;;;;;729.40;56.92;;;8.40;94.70;;;;;;4852682;29;20046;-72
2021/11/11 06:43:27;;;;;;;273.80;39.97;;;8.40;94.70;;;;;;4826047;29;20046;-71
2021/11/11 06:45:54;;;;;;;455.08;48.28;;;8.50;94.80;;;;;;4843339;29;20053;-73
2021/11/11 06:48:22;;;;;;;593.00;50.95;;;8.50;94.80;;;;;;4841292;29;20081;-73
2021/11/11 06:50:50;;;;;;;450.98;46.05;;;8.50;94.80;;;;;;4859343;29;20057;-71
2021/11/11 06:53:19;;;;;;;679.70;58.08;;;8.50;94.80;;;;;;4848841;29;20052;-71
2021/11/11 06:55:47;;;;;;;772.05;57.25;;;8.50;94.80;;;;;;4841440;29;20485;-71
2021/11/11 06:58:24;;;;;;;633.72;55.45;;;8.50;94.80;;;;;;4841484;29;20050;-71
2021/11/11 07:00:57;;;;;;;586.05;55.00;;;8.60;94.80;;;;;;4810250;29;20500;-72
2021/11/11 07:03:25;;;;;;;763.25;59.15;;;8.60;94.80;;;;;;4822439;29;20049;-72
2021/11/11 07:05:54;;;;;;;391.77;46.95;;;8.60;94.90;;;;;;4843173;29;20052;-72
2021/11/11 07:08:21;;;;;;;557.53;56.92;;;8.70;94.90;;;;;;4832608;29;20057;-72
2021/11/11 07:10:51;;;;;;;417.33;48.35;;;8.70;94.90;;;;;;4825502;29;20042;-72
2021/11/11 07:13:20;;;;;;;763.05;60.00;;;8.80;95.00;;;;;;4837473;29;20412;-72
2021/11/11 07:15:48;;;;;;;536.42;47.15;;;8.80;94.90;;;;;;4846969;29;20052;-72
2021/11/11 07:18:16;;;;;;;585.63;47.80;;;8.80;94.90;;;;;;4825205;29;20523;-73
2021/11/11 07:20:44;;;;;;;421.30;40.28;;;8.80;94.90;;;;;;4825716;29;20050;-72
2021/11/11 07:23:14;;;;;;;389.88;39.47;;;8.80;94.90;;;;;;4832659;29;20056;-72
2021/11/11 07:25:42;;;;;;;507.95;46.20;;;8.80;94.90;;;;;;4841966;29;20531;-72
2021/11/11 07:28:10;;;;;;;576.35;45.20;;;8.90;94.90;;;;;;4840748;29;20058;-73
2021/11/11 07:30:38;;;;;;;555.30;46.55;;;8.90;94.90;;;;;;4840607;29;20500;-72
2021/11/11 07:33:06;;;;;;;401.08;41.65;;;8.90;94.90;;;;;;4840396;29;20065;-73
2021/11/11 07:35:36;;;;;;;490.05;43.97;;;8.90;94.90;;;;;;4844230;29;20050;-73
2021/11/11 07:38:04;;;;;;;459.17;44.78;;;8.90;95.00;;;;;;4829045;29;20050;-72
2021/11/11 07:40:32;;;;;;;408.27;44.33;;;9.00;95.00;;;;;;4849500;29;20471;-73
2021/11/11 07:42:59;;;;;;;456.45;45.42;;;9.00;95.00;;;;;;4837407;29;20069;-73
2021/11/11 07:45:39;;;;;;;367.60;41.83;;;9.00;95.00;;;;;;4829257;29;20049;-73
2021/11/11 07:48:07;;;;;;;261.88;39.13;;;9.00;95.00;;;;;;4826847;29;20057;-73
2021/11/11 07:50:38;;;;;;;280.13;40.72;;;9.00;95.00;;;;;;4839742;29;20058;-73
2021/11/11 07:53:09;;;;;;;350.58;43.83;;;9.10;95.00;;;;;;4824244;29;20050;-72
2021/11/11 07:55:39;;;;;;;241.57;40.35;;;9.10;95.00;;;;;;4841374;29;20058;-73
2021/11/11 07:58:08;;;;;;;226.98;35.15;;;9.10;95.00;;;;;;4840784;29;20054;-72
2021/11/11 08:00:36;;;;;;;162.88;30.15;;;9.20;94.90;;;;;;4820259;29;20065;-72
2021/11/11 08:03:04;;;;;;;145.45;26.10;;;9.20;94.90;;;;;;4825066;29;20429;-74
2021/11/11 08:05:32;;;;;;;273.30;29.90;;;9.10;94.90;;;;;;4837312;29;20058;-73
2021/11/11 08:08:00;;;;;;;298.55;33.42;;;9.10;94.80;;;;;;4833043;29;20046;-72
2021/11/11 08:10:28;;;;;;;309.52;32.15;;;9.20;94.80;;;;;;4840784;29;20050;-72
2021/11/11 08:12:57;;;;;;;256.67;29.23;;;9.20;94.80;;;;;;4840228;29;20061;-72
2021/11/11 08:15:25;;;;;;;448.80;30.08;;;9.10;94.80;;;;;;4834392;29;20097;-72
2021/11/11 08:17:54;;;;;;;473.85;30.90;;;9.10;94.80;;;;;;4814268;29;20076;-74
2021/11/11 08:20:21;;;;;;;361.20;27.00;;;9.10;94.70;;;;;;4838036;29;20384;-72
2021/11/11 08:22:49;;;;;;;427.67;30.38;;;9.10;94.70;;;;;;4839316;29;20069;-73
2021/11/11 08:25:19;;;;;;;361.27;23.90;;;9.00;94.70;;;;;;4841711;29;20054;-73
2021/11/11 08:27:49;;;;;;;359.60;23.63;;;9.00;94.70;;;;;;4826993;29;20061;-72
2021/11/11 08:30:18;;;;;;;312.65;24.05;;;9.00;94.70;;;;;;4843525;29;20057;-73
2021/11/11 08:32:50;;;;;;;406.85;26.42;;;9.00;94.70;;;;;;4843591;29;20061;-73
2021/11/11 08:35:19;;;;;;;309.33;24.13;;;9.00;94.80;;;;;;4844363;29;20046;-72
2021/11/11 08:37:47;;;;;;;351.38;24.48;;;9.00;94.70;;;;;;4843886;29;20057;-73
2021/11/11 08:40:16;;;;;;;257.05;24.52;;;9.00;94.70;;;;;;4826903;29;20053;-73
2021/11/11 08:42:47;;;;;;;384.25;29.13;;;9.00;94.70;;;;;;4843959;29;20396;-73
2021/11/11 08:45:16;;;;;;;277.35;27.02;;;9.00;94.80;;;;;;4827652;29;20057;-73
2021/11/11 08:47:44;;;;;;;292.02;28.73;;;9.00;94.70;;;;;;4827395;29;20500;-73
2021/11/11 08:50:13;;;;;;;394.00;31.70;;;9.10;94.70;;;;;;4827715;29;20046;-73
2021/11/11 08:52:45;;;;;;;266.23;27.92;;;9.10;94.70;;;;;;4843831;29;20508;-73
2021/11/11 08:55:16;;;;;;;214.07;26.70;;;9.20;94.70;;;;;;4827543;29;20416;-73
2021/11/11 08:57:44;;;;;;;189.98;24.02;;;9.20;94.70;;;;;;4827326;29;20046;-73
2021/11/11 09:00:18;;;;;;;123.03;19.00;;;9.30;94.70;;;;;;4843786;29;20050;-73
2021/11/11 09:02:47;;;;;;;134.75;21.13;;;9.30;94.70;;;;;;4842534;29;20073;-73
2021/11/11 09:05:16;;;;;;;95.38;19.70;;;9.30;94.60;;;;;;4843074;29;20508;-73
2021/11/11 09:07:44;;;;;;;129.35;19.13;;;9.30;94.60;;;;;;4843381;29;20061;-73
2021/11/11 09:10:15;;;;;;;180.07;19.77;;;9.30;94.50;;;;;;4827434;29;20057;-72
2021/11/11 09:12:49;;;;;;;171.35;22.30;;;9.40;94.50;;;;;;4843420;29;20053;-73
2021/11/11 09:15:18;;;;;;;132.45;21.77;;;9.40;94.40;;;;;;4843769;29;20049;-73
2021/11/11 09:17:46;;;;;;;120.57;21.20;;;9.50;94.50;;;;;;4843173;29;20508;-73
2021/11/11 09:20:16;;;;;;;117.78;23.48;;;9.50;94.50;;;;;;4843569;29;20061;-73
2021/11/11 09:22:43;;;;;;;89.15;21.58;;;9.60;94.60;;;;;;4843319;29;20053;-73
2021/11/11 09:25:11;;;;;;;87.18;20.50;;;9.70;94.50;;;;;;4843373;29;20057;-73
2021/11/11 09:27:41;;;;;;;78.10;20.08;;;9.70;94.50;;;;;;4842377;29;20200;-73
2021/11/11 09:30:13;;;;;;;65.88;19.38;;;9.80;94.40;;;;;;4843361;29;20503;-73
2021/11/11 09:32:41;;;;;;;73.30;19.08;;;9.80;94.30;;;;;;4841900;29;20106;-72
2021/11/11 09:35:09;;;;;;;65.85;16.77;;;9.90;94.20;;;;;;4826871;29;20058;-74
2021/11/11 09:37:38;;;;;;;64.80;17.60;;;9.90;94.10;;;;;;4842457;29;20045;-72
2021/11/11 09:40:10;;;;;;;55.17;16.23;;;10.00;94.10;;;;;;4842696;29;20054;-73
2021/11/11 09:42:44;;;;;;;47.03;15.63;;;10.00;94.10;;;;;;4842994;29;20074;-73
2021/11/11 09:45:15;;;;;;;40.17;14.68;;;10.00;94.00;;;;;;4843086;29;20392;-73
2021/11/11 09:47:47;;;;;;;35.38;13.38;;;10.10;94.00;;;;;;4826396;29;20061;-73
2021/11/11 09:50:16;;;;;;;43.58;14.43;;;10.20;94.00;;;;;;4827069;29;20054;-73
2021/11/11 09:52:47;;;;;;;36.78;14.32;;;10.30;93.90;;;;;;4842857;29;20515;-74
2021/11/11 10:00:50;;;;;;;68.93;22.55;;;10.30;93.70;;;;;;4841860;29;20068;-72
2021/11/11 10:03:19;;;;;;;66.40;24.27;;;10.50;93.60;;;;;;4826263;29;20053;-75
2021/11/11 10:05:47;;;;;;;87.28;36.58;;;10.50;93.60;;;;;;4842777;29;20053;-73
2021/11/11 10:08:42;;;;;;;130.10;60.42;;;10.60;93.50;;;;;;4842090;29;20065;-73
2021/11/11 10:11:12;;;;;;;54.13;24.52;;;10.70;93.40;;;;;;4825621;29;20508;-73
2021/11/11 10:13:40;;;;;;;53.58;20.85;;;10.70;93.20;;;;;;4842346;29;20058;-72
2021/11/11 10:16:14;;;;;;;40.45;18.95;;;10.70;93.10;;;;;;4842408;29;20042;-72
2021/11/11 10:18:55;;;;;;;39.00;18.30;;;10.70;93.00;;;;;;4842446;29;20420;-73
2021/11/11 10:21:33;;;;;;;38.10;18.77;;;10.70;93.00;;;;;;4826245;29;20046;-72
2021/11/11 10:24:15;;;;;;;36.05;18.27;;;10.60;92.90;;;;;;4842130;29;20057;-72
2021/11/11 10:26:54;;;;;;;38.00;17.77;;;10.60;93.00;;;;;;4841901;29;20053;-73
2021/11/11 10:29:30;;;;;;;38.85;19.15;;;10.70;93.00;;;;;;4842268;29;20603;-73
2021/11/11 10:32:09;;;;;;;34.97;17.88;;;10.70;92.90;;;;;;4842162;29;20050;-73
2021/11/11 10:34:55;;;;;;;31.23;16.92;;;10.80;92.70;;;;;;4841416;29;20066;-73
2021/11/11 10:37:27;;;;;;;31.35;15.18;;;10.80;92.70;;;;;;4842151;29;20381;-72
2021/11/11 10:40:01;;;;;;;28.50;15.15;;;10.80;92.70;;;;;;4842099;29;20497;-73
2021/11/11 10:42:30;;;;;;;27.27;14.20;;;10.80;92.60;;;;;;4810495;29;20058;-73
2021/11/11 10:44:59;;;;;;;23.95;13.77;;;10.90;92.40;;;;;;4825470;29;20060;-72
2021/11/11 10:47:33;;;;;;;23.45;12.73;;;10.90;92.50;;;;;;4841089;29;20061;-73
2021/11/11 10:50:07;;;;;;;20.33;11.10;;;11.00;92.20;;;;;;4841211;29;20065;-73
2021/11/11 10:52:41;;;;;;;19.83;11.15;;;11.00;92.00;;;;;;4840950;29;20523;-72
2021/11/11 10:55:11;;;;;;;13.88;9.23;;;11.10;91.80;;;;;;4825397;29;20468;-72
2021/11/11 10:57:51;;;;;;;18.70;9.82;;;11.10;91.60;;;;;;4825536;29;20068;-73
2021/11/11 11:00:26;;;;;;;14.57;9.70;;;11.00;91.50;;;;;;4825563;29;20066;-73
2021/11/11 11:03:11;;;;;;;14.40;9.23;;;11.10;91.60;;;;;;4841740;29;20049;-73
2021/11/11 11:05:47;;;;;;;14.98;10.02;;;11.20;91.70;;;;;;4841649;29;20050;-73
2021/11/11 11:08:30;;;;;;;17.55;10.80;;;11.20;91.50;;;;;;4841312;29;20050;-73
2021/11/11 11:11:35;;;;;;;15.90;10.20;;;11.30;91.30;;;;;;4841802;29;20058;-72
2021/11/11 11:14:13;;;;;;;17.38;10.13;;;11.20;91.20;;;;;;4839700;29;20531;-73
2021/11/11 11:16:41;;;;;;;14.95;9.40;;;11.30;91.40;;;;;;4841673;29;20141;-73
2021/11/11 11:19:15;;;;;;;18.55;10.43;;;11.30;91.40;;;;;;4840820;29;20054;-72
2021/11/11 11:21:46;;;;;;;19.08;10.82;;;11.30;91.40;;;;;;4841368;29;20053;-72
2021/11/11 11:24:27;;;;;;;19.35;10.93;;;11.40;91.40;;;;;;4841370;29;20519;-73
2021/11/11 11:26:58;;;;;;;15.75;9.05;;;11.40;91.40;;;;;;4841560;29;20053;-73
2021/11/11 11:29:37;;;;;;;17.20;9.68;;;11.50;91.40;;;;;;4840730;29;20058;-72
2021/11/11 11:32:08;;;;;;;14.95;9.40;;;11.50;91.30;;;;;;4824604;29;20064;-72
2021/11/11 11:34:45;;;;;;;15.00;8.90;;;11.60;91.30;;;;;;4840004;29;20068;-72
2021/11/11 11:37:24;;;;;;;16.70;8.63;;;11.50;91.30;;;;;;4841496;29;20050;-72
2021/11/11 11:40:06;;;;;;;13.88;8.38;;;11.50;91.20;;;;;;4841144;29;20050;-72
2021/11/11 11:42:41;;;;;;;12.55;8.10;;;11.50;91.20;;;;;;4841560;29;20050;-72
2021/11/11 11:45:12;;;;;;;11.48;7.78;;;11.50;91.30;;;;;;4841395;29;20507;-73
2021/11/11 11:47:54;;;;;;;14.40;8.50;;;11.60;91.30;;;;;;4841322;29;20042;-72
2021/11/11 11:50:37;;;;;;;12.55;7.47;;;11.60;91.30;;;;;;4825284;29;20061;-72
2021/11/11 11:53:09;;;;;;;12.70;8.00;;;11.80;91.20;;;;;;4810669;29;20065;-73
2021/11/11 11:55:51;;;;;;;11.90;7.65;;;11.80;91.10;;;;;;4840969;29;20069;-73
2021/11/11 12:11:36;;;;;;;12.65;7.55;;;11.80;90.70;;;;;;4844314;29;20057;-73
2021/11/11 12:28:43;;;;;;;12.18;8.25;;;12.10;90.40;;;;;;4844334;29;20046;-72
2021/11/11 12:38:33;;;;;;;11.30;8.25;;;12.10;90.30;;;;;;4844104;29;20058;-73
2021/11/11 12:40:16;;;;;;;14.02;8.65;;;12.10;90.00;;;;;;4844468;29;20057;-73
2021/11/11 12:42:56;;;;;;;13.98;8.82;;;12.10;90.00;;;;;;4844370;29;20492;-73
2021/11/11 12:45:30;;;;;;;14.63;9.95;;;12.10;90.00;;;;;;4827385;29;20057;-73
2021/11/11 12:48:08;;;;;;;16.42;10.48;;;12.10;90.10;;;;;;4843808;29;20057;-73
2021/11/11 12:50:45;;;;;;;20.80;11.25;;;12.00;90.10;;;;;;4843167;29;20057;-72
2021/11/11 12:53:22;;;;;;;19.10;10.98;;;12.10;90.20;;;;;;4843917;29;20061;-72
2021/11/11 12:55:53;;;;;;;20.52;11.80;;;12.00;90.30;;;;;;4843961;29;20069;-72
2021/11/11 12:58:33;;;;;;;20.70;12.75;;;12.10;90.40;;;;;;4843943;29;20500;-72
2021/11/11 13:01:12;;;;;;;24.48;13.48;;;12.10;90.30;;;;;;4843807;29;20050;-72
2021/11/11 13:03:49;;;;;;;21.55;12.95;;;12.00;90.40;;;;;;4843702;29;20054;-72
2021/11/11 13:06:39;;;;;;;17.63;11.10;;;12.00;90.40;;;;;;4812064;29;20053;-72
2021/11/11 13:09:22;;;;;;;22.17;11.73;;;12.00;90.50;;;;;;4826908;29;20544;-72
2021/11/11 13:12:06;;;;;;;17.05;10.98;;;11.90;90.60;;;;;;4842357;29;20054;-72
2021/11/11 13:14:53;;;;;;;18.23;10.98;;;11.90;90.60;;;;;;4843652;29;20054;-72
2021/11/11 13:17:24;;;;;;;19.67;11.48;;;11.90;90.70;;;;;;4842880;29;20061;-73
2021/11/11 13:19:56;;;;;;;20.65;12.13;;;11.90;90.70;;;;;;4843532;29;20060;-72
2021/11/11 15:57:31;;;;;;;10.77;5.60;;;11.90;91.20;;;;;;4843248;29;20064;-73
2021/11/11 16:02:49;;;;;;;5.60;4.82;;;11.90;91.00;;;;;;4807421;29;20510;-73
2021/11/11 16:25:05;;;;;;;3.17;2.88;;;11.90;89.70;;;;;;4804843;29;20043;-72
2021/11/11 16:27:33;;;;;;;5.93;3.03;;;11.90;89.50;;;;;;4800849;29;20069;-72
2021/11/11 16:30:13;;;;;;;5.50;3.17;;;11.90;89.50;;;;;;4804451;29;20054;-72
2021/11/11 16:32:41;;;;;;;4.47;3.77;;;11.90;89.40;;;;;;4805129;29;20517;-72
2021/11/11 16:35:12;;;;;;;5.50;3.63;;;11.90;89.40;;;;;;4802517;29;20059;-72
2021/11/11 16:37:41;;;;;;;5.70;4.00;;;11.90;89.40;;;;;;4802724;29;20075;-72
2021/11/11 16:40:11;;;;;;;4.05;3.40;;;11.90;89.50;;;;;;4807105;29;20050;-72
2021/11/11 16:42:39;;;;;;;4.68;3.90;;;11.90;89.50;;;;;;4793541;29;20070;-72
2021/11/11 16:45:15;;;;;;;4.43;3.95;;;11.90;89.60;;;;;;4806762;29;20050;-72
2021/11/11 16:47:44;;;;;;;6.47;4.00;;;11.80;89.60;;;;;;4803831;29;20232;-72
2021/11/11 16:50:15;;;;;;;4.20;3.80;;;11.80;89.60;;;;;;4811059;29;20054;-72
2021/11/11 16:52:43;;;;;;;5.93;4.03;;;11.80;89.50;;;;;;4808329;29;20057;-72